GLO1048 SBSP-SBRJ
Flight info
| Callsign | GLO1048 |
|---|---|
| Flight time | 0h 39m |
| Altitude | 27000 |
| Route | NIBRU UZ171 KEVUN |
| Aircraft | B738/M-SDE2E3FGHIRWXY/LB1 |
Departure
| Time | 2026-05-07 03:17 |
|---|---|
| Airport | Congonhas–Deputado Freitas Nobre Airport (SBSP) |
Arrival
| Time | 2026-05-07 03:56 |
|---|---|
| Airport | Santos Dumont Airport (SBRJ) |
| Time | Latitude | Longitude | Altitude | Speed | Heading |
|---|---|---|---|---|---|
| 2026-05-07 03:13 | -23.62523 | -46.65902 | 2600 ft | 1 kts | 329° |
| 2026-05-07 03:13 | -23.62526 | -46.65899 | 2600 ft | 0 kts | 324° |
| 2026-05-07 03:15 | -23.62507 | -46.65905 | 2600 ft | 7 kts | 354° |
| 2026-05-07 03:15 | -23.62431 | -46.65918 | 2600 ft | 14 kts | 333° |
| 2026-05-07 03:15 | -23.62344 | -46.65980 | 2599 ft | 16 kts | 327° |
| 2026-05-07 03:15 | -23.62242 | -46.66048 | 2599 ft | 18 kts | 338° |
| 2026-05-07 03:16 | -23.62131 | -46.66118 | 2593 ft | 18 kts | 326° |
| 2026-05-07 03:16 | -23.62036 | -46.66099 | 2587 ft | 12 kts | 82° |
| 2026-05-07 03:16 | -23.62114 | -46.66028 | 2596 ft | 31 kts | 148° |
| 2026-05-07 03:16 | -23.62547 | -46.65729 | 2604 ft | 114 kts | 148° |
| 2026-05-07 03:17 | -23.63401 | -46.65130 | 2718 ft | 172 kts | 147° |
| 2026-05-07 03:17 | -23.64427 | -46.64416 | 3653 ft | 175 kts | 143° |
| 2026-05-07 03:17 | -23.65216 | -46.63399 | 4403 ft | 186 kts | 113° |
| 2026-05-07 03:17 | -23.65780 | -46.62069 | 4995 ft | 206 kts | 113° |
| 2026-05-07 03:18 | -23.66455 | -46.60595 | 5300 ft | 228 kts | 115° |
| 2026-05-07 03:18 | -23.67234 | -46.58989 | 5606 ft | 251 kts | 116° |
| 2026-05-07 03:18 | -23.68106 | -46.57234 | 5885 ft | 272 kts | 117° |
| 2026-05-07 03:18 | -23.69030 | -46.55386 | 6525 ft | 282 kts | 117° |
| 2026-05-07 03:19 | -23.69975 | -46.53497 | 7425 ft | 283 kts | 117° |
| 2026-05-07 03:19 | -23.70922 | -46.51601 | 8332 ft | 286 kts | 117° |
| 2026-05-07 03:19 | -23.71769 | -46.49634 | 9206 ft | 289 kts | 103° |
| 2026-05-07 03:19 | -23.71895 | -46.47456 | 10081 ft | 290 kts | 83° |
| 2026-05-07 03:20 | -23.71615 | -46.45248 | 10707 ft | 302 kts | 80° |
| 2026-05-07 03:20 | -23.71256 | -46.42876 | 10892 ft | 330 kts | 79° |
| 2026-05-07 03:20 | -23.70866 | -46.40356 | 11383 ft | 343 kts | 79° |
| 2026-05-07 03:20 | -23.70475 | -46.37770 | 12096 ft | 347 kts | 80° |
| 2026-05-07 03:21 | -23.70090 | -46.35165 | 12904 ft | 349 kts | 81° |
| 2026-05-07 03:21 | -23.69708 | -46.32533 | 13603 ft | 354 kts | 81° |
| 2026-05-07 03:21 | -23.69324 | -46.29867 | 14269 ft | 357 kts | 81° |
| 2026-05-07 03:21 | -23.68940 | -46.27178 | 14907 ft | 360 kts | 81° |
| 2026-05-07 03:22 | -23.68552 | -46.24470 | 15528 ft | 364 kts | 81° |
| 2026-05-07 03:22 | -23.68161 | -46.21732 | 16150 ft | 367 kts | 81° |
| 2026-05-07 03:22 | -23.67764 | -46.18954 | 16714 ft | 373 kts | 82° |
| 2026-05-07 03:22 | -23.67360 | -46.16144 | 17317 ft | 377 kts | 82° |
| 2026-05-07 03:23 | -23.66952 | -46.13308 | 17944 ft | 381 kts | 82° |
| 2026-05-07 03:23 | -23.66540 | -46.10442 | 18517 ft | 385 kts | 82° |
| 2026-05-07 03:23 | -23.66124 | -46.07545 | 19022 ft | 389 kts | 82° |
| 2026-05-07 03:23 | -23.65703 | -46.04610 | 19515 ft | 394 kts | 82° |
| 2026-05-07 03:24 | -23.65276 | -46.01650 | 20018 ft | 398 kts | 82° |
| 2026-05-07 03:24 | -23.64844 | -45.98651 | 20502 ft | 402 kts | 82° |
| 2026-05-07 03:24 | -23.64408 | -45.95626 | 21005 ft | 406 kts | 83° |
| 2026-05-07 03:24 | -23.63968 | -45.92570 | 21510 ft | 410 kts | 83° |
| 2026-05-07 03:25 | -23.63522 | -45.89482 | 21994 ft | 414 kts | 83° |
| 2026-05-07 03:25 | -23.63072 | -45.86366 | 22480 ft | 418 kts | 83° |
| 2026-05-07 03:25 | -23.62622 | -45.83260 | 22948 ft | 422 kts | 83° |
| 2026-05-07 03:25 | -23.62161 | -45.80082 | 23424 ft | 426 kts | 83° |
| 2026-05-07 03:26 | -23.61695 | -45.76877 | 23872 ft | 429 kts | 84° |
| 2026-05-07 03:26 | -23.61226 | -45.73662 | 24372 ft | 429 kts | 84° |
| 2026-05-07 03:26 | -23.60757 | -45.70451 | 24904 ft | 429 kts | 84° |
| 2026-05-07 03:26 | -23.60287 | -45.67238 | 25409 ft | 429 kts | 84° |
| 2026-05-07 03:27 | -23.59816 | -45.64020 | 25909 ft | 430 kts | 84° |
| 2026-05-07 03:27 | -23.59344 | -45.60795 | 26436 ft | 431 kts | 85° |
| 2026-05-07 03:27 | -23.59184 | -45.59706 | 26613 ft | 431 kts | 85° |
| 2026-05-07 03:28 | -23.58742 | -45.56694 | 26978 ft | 433 kts | 85° |
| 2026-05-07 03:28 | -23.58254 | -45.53522 | 27048 ft | 429 kts | 82° |
| 2026-05-07 03:28 | -23.57433 | -45.50377 | 27125 ft | 434 kts | 76° |
| 2026-05-07 03:28 | -23.56470 | -45.47238 | 27123 ft | 438 kts | 75° |
| 2026-05-07 03:29 | -23.55475 | -45.44106 | 27131 ft | 436 kts | 74° |
| 2026-05-07 03:29 | -23.54483 | -45.40993 | 27132 ft | 435 kts | 75° |
| 2026-05-07 03:29 | -23.53499 | -45.37879 | 27132 ft | 435 kts | 75° |
| 2026-05-07 03:29 | -23.52521 | -45.34751 | 27138 ft | 436 kts | 75° |
| 2026-05-07 03:30 | -23.51553 | -45.31631 | 27140 ft | 435 kts | 75° |
| 2026-05-07 03:30 | -23.50588 | -45.28502 | 27136 ft | 436 kts | 75° |
| 2026-05-07 03:30 | -23.49624 | -45.25367 | 27132 ft | 436 kts | 75° |
| 2026-05-07 03:30 | -23.48662 | -45.22237 | 27135 ft | 436 kts | 75° |
| 2026-05-07 03:31 | -23.47701 | -45.19110 | 27125 ft | 435 kts | 75° |
| 2026-05-07 03:31 | -23.46740 | -45.15988 | 27122 ft | 435 kts | 75° |
| 2026-05-07 03:31 | -23.45783 | -45.12879 | 27130 ft | 434 kts | 75° |
| 2026-05-07 03:31 | -23.44821 | -45.09763 | 27121 ft | 429 kts | 75° |
| 2026-05-07 03:32 | -23.44185 | -45.07702 | 27118 ft | 424 kts | 75° |
| 2026-05-07 03:32 | -23.42947 | -45.03699 | 27119 ft | 420 kts | 75° |
| 2026-05-07 03:32 | -23.42015 | -45.00684 | 27125 ft | 420 kts | 75° |
| 2026-05-07 03:32 | -23.41085 | -44.97675 | 27133 ft | 421 kts | 75° |
| 2026-05-07 03:33 | -23.40453 | -44.95631 | 27131 ft | 419 kts | 75° |
| 2026-05-07 03:33 | -23.39536 | -44.92677 | 27111 ft | 407 kts | 75° |
| 2026-05-07 03:33 | -23.38642 | -44.89803 | 27102 ft | 393 kts | 75° |
| 2026-05-07 03:33 | -23.37791 | -44.87071 | 27104 ft | 380 kts | 75° |
| 2026-05-07 03:34 | -23.36958 | -44.84397 | 27075 ft | 367 kts | 76° |
| 2026-05-07 03:34 | -23.36133 | -44.81741 | 26544 ft | 367 kts | 75° |
| 2026-05-07 03:34 | -23.35306 | -44.79057 | 25405 ft | 385 kts | 75° |
| 2026-05-07 03:34 | -23.34450 | -44.76274 | 24501 ft | 396 kts | 74° |
| 2026-05-07 03:35 | -23.33567 | -44.73432 | 23894 ft | 399 kts | 74° |
| 2026-05-07 03:35 | -23.32674 | -44.70565 | 23332 ft | 400 kts | 74° |
| 2026-05-07 03:35 | -23.31781 | -44.67706 | 22878 ft | 397 kts | 73° |
| 2026-05-07 03:35 | -23.30920 | -44.64950 | 22492 ft | 392 kts | 73° |
| 2026-05-07 03:36 | -23.30057 | -44.62195 | 22285 ft | 382 kts | 73° |
| 2026-05-07 03:36 | -23.29195 | -44.59438 | 21725 ft | 384 kts | 73° |
| 2026-05-07 03:36 | -23.28334 | -44.56688 | 21267 ft | 381 kts | 73° |
| 2026-05-07 03:36 | -23.27481 | -44.53966 | 20902 ft | 376 kts | 73° |
| 2026-05-07 03:37 | -23.26642 | -44.51286 | 20499 ft | 373 kts | 73° |
| 2026-05-07 03:37 | -23.25809 | -44.48628 | 20111 ft | 370 kts | 73° |
| 2026-05-07 03:37 | -23.24981 | -44.45985 | 19723 ft | 367 kts | 72° |
| 2026-05-07 03:37 | -23.24170 | -44.43396 | 19348 ft | 365 kts | 72° |
| 2026-05-07 03:38 | -23.23344 | -44.40759 | 18971 ft | 363 kts | 72° |
| 2026-05-07 03:38 | -23.22532 | -44.38172 | 18600 ft | 360 kts | 72° |
| 2026-05-07 03:38 | -23.21726 | -44.35608 | 18194 ft | 358 kts | 72° |
| 2026-05-07 03:38 | -23.20934 | -44.33088 | 17794 ft | 356 kts | 72° |
| 2026-05-07 03:39 | -23.20134 | -44.30548 | 17395 ft | 353 kts | 72° |
| 2026-05-07 03:39 | -23.19342 | -44.28032 | 17014 ft | 350 kts | 72° |
| 2026-05-07 03:39 | -23.18557 | -44.25540 | 16646 ft | 347 kts | 72° |
| 2026-05-07 03:39 | -23.17777 | -44.23064 | 16286 ft | 344 kts | 72° |
| 2026-05-07 03:40 | -23.17008 | -44.20628 | 15996 ft | 339 kts | 72° |
| 2026-05-07 03:40 | -23.16242 | -44.18201 | 15595 ft | 339 kts | 71° |
| 2026-05-07 03:40 | -23.15481 | -44.15790 | 15226 ft | 337 kts | 71° |
| 2026-05-07 03:40 | -23.14723 | -44.13390 | 14871 ft | 335 kts | 71° |
| 2026-05-07 03:41 | -23.13968 | -44.11001 | 14507 ft | 333 kts | 71° |
| 2026-05-07 03:41 | -23.13220 | -44.08634 | 14160 ft | 330 kts | 71° |
| 2026-05-07 03:41 | -23.12474 | -44.06280 | 13789 ft | 329 kts | 71° |
| 2026-05-07 03:41 | -23.11733 | -44.03940 | 13396 ft | 326 kts | 71° |
| 2026-05-07 03:42 | -23.10998 | -44.01619 | 13034 ft | 324 kts | 71° |
| 2026-05-07 03:42 | -23.10267 | -43.99314 | 12679 ft | 321 kts | 71° |
| 2026-05-07 03:42 | -23.09544 | -43.97034 | 12337 ft | 318 kts | 70° |
| 2026-05-07 03:42 | -23.08824 | -43.94765 | 11993 ft | 316 kts | 70° |
| 2026-05-07 03:43 | -23.08123 | -43.92555 | 11664 ft | 313 kts | 70° |
| 2026-05-07 03:43 | -23.07404 | -43.90293 | 11324 ft | 311 kts | 70° |
| 2026-05-07 03:43 | -23.06710 | -43.88109 | 10992 ft | 309 kts | 70° |
| 2026-05-07 03:43 | -23.06010 | -43.85908 | 10663 ft | 307 kts | 70° |
| 2026-05-07 03:44 | -23.05317 | -43.83730 | 10462 ft | 301 kts | 70° |
| 2026-05-07 03:44 | -23.04644 | -43.81616 | 10325 ft | 292 kts | 70° |
| 2026-05-07 03:44 | -23.03991 | -43.79563 | 10202 ft | 284 kts | 70° |
| 2026-05-07 03:44 | -23.03354 | -43.77561 | 9999 ft | 279 kts | 70° |
| 2026-05-07 03:45 | -23.02719 | -43.75572 | 9700 ft | 277 kts | 70° |
| 2026-05-07 03:45 | -23.02091 | -43.73601 | 9422 ft | 275 kts | 70° |
| 2026-05-07 03:45 | -23.01466 | -43.71644 | 9147 ft | 273 kts | 70° |
| 2026-05-07 03:45 | -23.00844 | -43.69701 | 8861 ft | 271 kts | 70° |
| 2026-05-07 03:46 | -23.00229 | -43.67778 | 8585 ft | 269 kts | 70° |
| 2026-05-07 03:46 | -22.99618 | -43.65865 | 8319 ft | 267 kts | 70° |
| 2026-05-07 03:46 | -22.99096 | -43.64231 | 8092 ft | 266 kts | 70° |
| 2026-05-07 03:46 | -22.98503 | -43.62377 | 7833 ft | 264 kts | 70° |
| 2026-05-07 03:47 | -22.97902 | -43.60495 | 7558 ft | 264 kts | 70° |
| 2026-05-07 03:47 | -22.97297 | -43.58604 | 7198 ft | 267 kts | 70° |
| 2026-05-07 03:47 | -22.96688 | -43.56703 | 6898 ft | 267 kts | 70° |
| 2026-05-07 03:47 | -22.96085 | -43.54823 | 6613 ft | 260 kts | 70° |
| 2026-05-07 03:48 | -22.95505 | -43.53019 | 6298 ft | 253 kts | 70° |
| 2026-05-07 03:48 | -22.94932 | -43.51240 | 6022 ft | 246 kts | 70° |
| 2026-05-07 03:48 | -22.94292 | -43.49550 | 5772 ft | 237 kts | 65° |
| 2026-05-07 03:48 | -22.93607 | -43.47960 | 5539 ft | 227 kts | 64° |
| 2026-05-07 03:49 | -22.92950 | -43.46438 | 5296 ft | 218 kts | 64° |
| 2026-05-07 03:49 | -22.92322 | -43.44972 | 5086 ft | 210 kts | 64° |
| 2026-05-07 03:49 | -22.91719 | -43.43558 | 4861 ft | 203 kts | 64° |
| 2026-05-07 03:49 | -22.91135 | -43.42189 | 4644 ft | 197 kts | 64° |
| 2026-05-07 03:50 | -22.90569 | -43.40858 | 4426 ft | 191 kts | 64° |
| 2026-05-07 03:50 | -22.90024 | -43.39573 | 4232 ft | 184 kts | 64° |
| 2026-05-07 03:50 | -22.89497 | -43.38334 | 4029 ft | 179 kts | 64° |
| 2026-05-07 03:50 | -22.88980 | -43.37119 | 3865 ft | 177 kts | 64° |
| 2026-05-07 03:51 | -22.88463 | -43.35906 | 3686 ft | 177 kts | 64° |
| 2026-05-07 03:51 | -22.87999 | -43.34665 | 3498 ft | 178 kts | 70° |
| 2026-05-07 03:51 | -22.87597 | -43.33401 | 3320 ft | 178 kts | 70° |
| 2026-05-07 03:51 | -22.87196 | -43.32137 | 3107 ft | 176 kts | 69° |
| 2026-05-07 03:52 | -22.86798 | -43.30889 | 2917 ft | 174 kts | 70° |
| 2026-05-07 03:52 | -22.86407 | -43.29669 | 2750 ft | 168 kts | 70° |
| 2026-05-07 03:52 | -22.86031 | -43.28495 | 2562 ft | 163 kts | 70° |
| 2026-05-07 03:52 | -22.85663 | -43.27350 | 2380 ft | 159 kts | 70° |
| 2026-05-07 03:53 | -22.85470 | -43.26165 | 2153 ft | 164 kts | 98° |
| 2026-05-07 03:53 | -22.85683 | -43.24956 | 1991 ft | 164 kts | 97° |
| 2026-05-07 03:53 | -22.85855 | -43.23736 | 1789 ft | 163 kts | 97° |
| 2026-05-07 03:53 | -22.86019 | -43.22553 | 1627 ft | 152 kts | 97° |
| 2026-05-07 03:54 | -22.86172 | -43.21460 | 1381 ft | 142 kts | 97° |
| 2026-05-07 03:54 | -22.86319 | -43.20411 | 1177 ft | 141 kts | 97° |
| 2026-05-07 03:54 | -22.86503 | -43.19367 | 1041 ft | 141 kts | 101° |
| 2026-05-07 03:54 | -22.86735 | -43.18319 | 859 ft | 144 kts | 105° |
| 2026-05-07 03:55 | -22.87159 | -43.17328 | 674 ft | 146 kts | 126° |
| 2026-05-07 03:55 | -22.87948 | -43.16685 | 482 ft | 144 kts | 159° |
| 2026-05-07 03:55 | -22.88923 | -43.16444 | 296 ft | 143 kts | 170° |
| 2026-05-07 03:55 | -22.89903 | -43.16351 | 119 ft | 140 kts | 175° |
| 2026-05-07 03:56 | -22.90869 | -43.16297 | 25 ft | 132 kts | 173° |
| 2026-05-07 03:56 | -22.91436 | -43.16258 | 19 ft | 29 kts | 176° |
| 2026-05-07 03:56 | -22.91529 | -43.16318 | 22 ft | 9 kts | 256° |
| 2026-05-07 03:56 | -22.91513 | -43.16383 | 23 ft | 9 kts | 298° |
| 2026-05-07 03:57 | -22.91472 | -43.16432 | 24 ft | 9 kts | 316° |
| 2026-05-07 03:57 | -22.91429 | -43.16477 | 24 ft | 8 kts | 317° |
| 2026-05-07 03:57 | -22.91376 | -43.16501 | 25 ft | 8 kts | 353° |
| 2026-05-07 03:57 | -22.91324 | -43.16515 | 25 ft | 7 kts | 314° |
| 2026-05-07 03:58 | -22.91318 | -43.16548 | 25 ft | 4 kts | 270° |
| 2026-05-07 03:58 | -22.91319 | -43.16573 | 25 ft | 0 kts | 269° |